Nearby METAR Reports

 

CXKE - Kemptville, Ontario, Canada
Distance from station: ESE 39km
Updated: 15/06/2019 21:00

 Wind from WSW
Wind: WSW 9 km/h
Temperature: 16°C
Dew Point: 15°C
Humidity: 94%
2019/06/16 01:00 CXKE 160100Z AUTO 24005KT 16/15 RMK AO1 SLP087 T01570147 53004
CYOW - Ottawa Intl, Ontario, Canada
Distance from station: NE 43km
Updated: 15/06/2019 21:00
Partly Cloudy
Partly Cloudy
 Wind from SW
Wind: SW 15 km/h
Temperature: 15°C
Dew Point: 14°C
Humidity: 94%
Barometer: 1008.1 hPa
Clouds: Partly Cloudy
Visibility: 13 km
Cloud details: Few Clouds 122 m
Few Clouds 762 m
Partly Cloudy 2042 m
2019/06/16 01:00 CYOW 160100Z 23008KT 8SM FEW004 FEW025 SCT067 15/14 A2977 RMK SF1SC1AC2 SLP085 DENSITY ALT 700FT
 
CYND - Gatineau Airport, Quebec, Canada
Distance from station: NE 64km
Updated: 15/06/2019 21:00
Mostly Cloudy
Mostly Cloudy
 Wind from W
Wind: W 15 km/h
Temperature: 15°C
Dew Point: 15°C
Humidity: 100%
Barometer: 1008.1 hPa
Clouds: Mostly Cloudy
Visibility: 24 km
Cloud details: Mostly Cloudy 396 m
Mostly Cloudy 2743 m
2019/06/16 01:00 CYND 160100Z 26008KT 15SM BKN013 BKN090 15/15 A2977 RMK SC6AC1 AC TR LAST STFD OBS/NEXT 161100 UTC SLP082 DENSITY ALT 500FT
CYGK - Kingston, Ontario, CA
Distance from station: S 80km
Updated: 15/06/2019 21:00
Light rain, Overcast
Light rain, Overcast
 Wind from WSW
Wind: WSW 22 km/h, Gust: 33 km/h
Temperature: 15°C
Dew Point: 15°C
Humidity: 100%
Barometer: 1009.8 hPa
Summary: Light Rain
Clouds: Overcast
Visibility: 13 km
Cloud details: Overcast 305 m
2019/06/16 01:00 CYGK 160100Z 24012G18KT 8SM -RA OVC010 15/15 A2982 RMK SF8 SLP101 DENSITY ALT 500FT